Time;durP1;ratioP1;P1;durP2;ratioP2;P2;SDS_P1;SDS_P2;PMS_P1;PMS_P2;Temp;Humidity;BMP_temperature;BMP_pressure;BME280_temperature;BME280_humidity;BME280_pressure;Samples;Min_cycle;Max_cycle;Signal;HPM_P1;HPM_P2
2021/12/08 00:01:57;;;;;;;;;;;3.70;99.90;;;;;;6187114;23;19990;-69
2021/12/08 00:04:23;;;;;;;;;;;3.60;99.90;;;;;;6187732;23;20312;-69
2021/12/08 00:06:48;;;;;;;;;;;3.60;99.90;;;;;;6212605;23;19982;-68
2021/12/08 00:09:27;;;;;;;;;;;3.60;99.90;;;;;;6212409;23;19915;-69
2021/12/08 00:14:37;;;;;;;;;;;3.60;99.90;;;;;;6212554;23;19916;-69
2021/12/08 00:17:02;;;;;;;;;;;3.60;99.90;;;;;;6212272;23;19970;-69
2021/12/08 00:19:29;;;;;;;;;;;3.60;99.90;;;;;;6187330;23;20291;-70
2021/12/08 00:21:54;;;;;;;;;;;3.60;99.90;;;;;;6211841;23;20280;-70
2021/12/08 00:24:20;;;;;;;;;;;3.60;99.90;;;;;;6187506;23;19926;-70
2021/12/08 00:26:45;;;;;;;;;;;3.60;99.90;;;;;;6212433;23;19990;-70
2021/12/08 00:29:11;;;;;;;;;;;3.60;99.90;;;;;;6211684;23;19915;-69
2021/12/08 00:31:36;;;;;;;;;;;3.70;99.90;;;;;;6187833;23;19958;-69
2021/12/08 00:34:02;;;;;;;;;;;3.60;99.90;;;;;;6212590;23;19916;-68
2021/12/08 00:36:39;;;;;;;;;;;3.70;99.90;;;;;;6212006;23;19991;-69
2021/12/08 00:39:04;;;;;;;;;;;3.60;99.90;;;;;;6213023;23;20044;-70
2021/12/08 00:41:30;;;;;;;;;;;3.70;99.90;;;;;;6212348;23;20035;-69
2021/12/08 00:43:56;;;;;;;;;;;3.70;99.90;;;;;;6212100;23;20031;-69
2021/12/08 00:46:21;;;;;;;;;;;3.70;99.90;;;;;;6212501;23;19990;-69
2021/12/08 00:48:50;;;;;;;;;;;3.70;99.90;;;;;;6212372;23;19950;-69
2021/12/08 00:51:19;;;;;;;;;;;3.70;99.90;;;;;;6211990;23;19920;-71
2021/12/08 00:53:45;;;;;;;;;;;3.70;99.90;;;;;;6212410;23;19950;-72
2021/12/08 00:56:11;;;;;;;;;;;3.70;99.90;;;;;;6187316;23;19919;-71
2021/12/08 00:58:37;;;;;;;;;;;3.80;99.90;;;;;;6211769;23;19922;-71
2021/12/08 01:01:03;;;;;;;;;;;3.80;99.90;;;;;;6212167;23;19915;-71
2021/12/08 01:03:28;;;;;;;;;;;3.70;99.90;;;;;;6213365;23;19923;-71
2021/12/08 01:05:55;;;;;;;;;;;3.70;99.90;;;;;;6214183;23;19937;-71
2021/12/08 01:08:23;;;;;;;;;;;3.70;99.90;;;;;;6212497;23;19926;-70
2021/12/08 01:10:50;;;;;;;;;;;3.80;99.90;;;;;;6211429;23;19939;-70
2021/12/08 01:13:15;;;;;;;;;;;3.80;99.90;;;;;;6214515;23;19919;-70
2021/12/08 01:15:43;;;;;;;;;;;3.80;99.90;;;;;;6212216;23;20283;-70
2021/12/08 01:18:09;;;;;;;;;;;3.80;99.90;;;;;;6213364;23;19995;-70
2021/12/08 01:20:34;;;;;;;;;;;3.80;99.90;;;;;;6213736;23;19959;-69
2021/12/08 01:23:00;;;;;;;;;;;3.80;99.90;;;;;;6212298;23;19919;-70
2021/12/08 01:25:25;;;;;;;;;;;3.80;99.90;;;;;;6211362;23;19919;-69
2021/12/08 01:27:51;;;;;;;;;;;3.80;99.90;;;;;;6212230;23;19916;-69
2021/12/08 01:30:17;;;;;;;;;;;3.80;99.90;;;;;;6211803;23;19915;-70
2021/12/08 01:32:42;;;;;;;;;;;3.80;99.90;;;;;;6211321;23;19920;-70
2021/12/08 01:35:09;;;;;;;;;;;3.90;99.90;;;;;;6212569;23;19916;-70
2021/12/08 01:37:35;;;;;;;;;;;3.90;99.90;;;;;;6212313;23;19920;-70
2021/12/08 01:40:01;;;;;;;;;;;3.90;99.90;;;;;;6211175;23;19927;-70
2021/12/08 01:42:35;;;;;;;;;;;3.80;99.90;;;;;;6186866;23;19924;-70
2021/12/08 01:47:46;;;;;;;;;;;3.90;99.90;;;;;;6211026;23;20048;-71
2021/12/08 01:50:11;;;;;;;;;;;3.90;99.90;;;;;;6211770;23;19922;-71
2021/12/08 01:52:38;;;;;;;;;;;3.90;99.90;;;;;;6211549;23;19986;-70
2021/12/08 01:55:05;;;;;;;;;;;3.90;99.90;;;;;;6212165;23;19922;-69
2021/12/08 01:57:30;;;;;;;;;;;3.90;99.90;;;;;;6212005;23;20048;-70
2021/12/08 01:59:56;;;;;;;;;;;3.90;99.90;;;;;;6186279;23;19957;-68
2021/12/08 02:02:21;;;;;;;;;;;4.00;99.90;;;;;;6211803;23;19923;-68
2021/12/08 02:04:47;;;;;;;;;;;3.90;99.90;;;;;;6186914;23;19920;-69
2021/12/08 02:07:12;;;;;;;;;;;3.90;99.90;;;;;;6210889;23;19916;-69
2021/12/08 02:09:38;;;;;;;;;;;3.90;99.90;;;;;;6187113;23;19923;-69
2021/12/08 02:12:04;;;;;;;;;;;4.00;99.90;;;;;;6187130;23;19962;-69
2021/12/08 02:14:31;;;;;;;;;;;4.00;99.90;;;;;;6211206;23;19927;-69
2021/12/08 02:16:57;;;;;;;;;;;4.00;99.90;;;;;;6211804;23;19930;-69
2021/12/08 02:19:23;;;;;;;;;;;4.00;99.90;;;;;;6186701;23;19920;-70
2021/12/08 02:21:52;;;;;;;;;;;4.10;99.90;;;;;;6185264;23;19948;-70
2021/12/08 02:24:19;;;;;;;;;;;4.00;99.90;;;;;;6211567;23;19966;-71
2021/12/08 02:26:45;;;;;;;;;;;4.10;99.90;;;;;;6211744;23;20365;-70
2021/12/08 02:29:14;;;;;;;;;;;4.10;99.90;;;;;;6211075;23;20391;-70
2021/12/08 02:47:53;;;;;;;;;;;4.30;99.90;;;;;;6213473;23;19915;-70
2021/12/08 02:50:24;;;;;;;;;;;4.30;99.90;;;;;;6212792;23;20253;-70
2021/12/08 02:52:49;;;;;;;;;;;4.30;99.90;;;;;;6204177;23;19927;-71
2021/12/08 02:55:15;;;;;;;;;;;4.30;99.90;;;;;;6213590;23;19920;-70
2021/12/08 02:57:40;;;;;;;;;;;4.30;99.90;;;;;;6212784;23;19920;-70
2021/12/08 03:00:07;;;;;;;;;;;4.30;99.90;;;;;;6213681;23;19920;-70
2021/12/08 03:02:33;;;;;;;;;;;4.40;99.90;;;;;;6213689;23;19966;-71
2021/12/08 03:04:58;;;;;;;;;;;4.40;99.90;;;;;;6187435;23;20355;-71
2021/12/08 03:07:24;;;;;;;;;;;4.40;99.90;;;;;;6213739;23;19916;-70
2021/12/08 03:09:50;;;;;;;;;;;4.40;99.90;;;;;;6213027;23;19916;-70
2021/12/08 03:12:26;;;;;;;;;;;4.40;99.90;;;;;;6187745;23;19920;-70
2021/12/08 03:14:51;;;;;;;;;;;4.40;99.90;;;;;;6212896;23;19916;-72
2021/12/08 03:17:17;;;;;;;;;;;4.40;99.90;;;;;;6212503;23;19922;-71
2021/12/08 03:19:42;;;;;;;;;;;4.40;99.90;;;;;;6213327;23;19920;-71
2021/12/08 03:22:10;;;;;;;;;;;4.50;99.90;;;;;;6213522;23;19994;-71
2021/12/08 03:24:39;;;;;;;;;;;4.50;99.90;;;;;;6212865;23;19919;-71
2021/12/08 03:27:11;;;;;;;;;;;4.50;99.90;;;;;;6213544;23;19986;-71
2021/12/08 03:30:00;;;;;;;;;;;4.50;99.90;;;;;;6213693;23;19916;-71
2021/12/08 03:32:33;;;;;;;;;;;4.50;99.90;;;;;;6187277;23;19920;-71
2021/12/08 03:34:59;;;;;;;;;;;4.50;99.90;;;;;;6213193;23;20355;-71
2021/12/08 03:37:26;;;;;;;;;;;4.60;99.90;;;;;;6213397;23;19922;-70
2021/12/08 03:39:52;;;;;;;;;;;4.60;99.90;;;;;;6212262;23;19923;-72
2021/12/08 03:42:20;;;;;;;;;;;4.60;99.90;;;;;;6212804;23;19916;-71
2021/12/08 03:44:45;;;;;;;;;;;4.60;99.90;;;;;;6212872;23;20337;-71
2021/12/08 03:47:17;;;;;;;;;;;4.70;99.90;;;;;;6212272;23;19992;-72
2021/12/08 03:49:43;;;;;;;;;;;4.70;99.90;;;;;;6212785;23;19916;-72
2021/12/08 03:52:10;;;;;;;;;;;4.80;99.90;;;;;;6213050;23;19916;-72
2021/12/08 03:54:36;;;;;;;;;;;4.80;99.90;;;;;;6213011;23;19927;-71
2021/12/08 03:57:02;;;;;;;;;;;4.90;99.90;;;;;;6212999;23;19916;-72
2021/12/08 03:59:28;;;;;;;;;;;4.90;99.90;;;;;;6212221;23;19916;-71
2021/12/08 04:01:53;;;;;;;;;;;4.90;99.90;;;;;;6214368;23;20381;-71
2021/12/08 04:04:24;;;;;;;;;;;4.90;99.90;;;;;;6214451;23;19919;-71
2021/12/08 04:06:52;;;;;;;;;;;4.90;99.90;;;;;;6211910;23;19987;-71
2021/12/08 04:09:32;;;;;;;;;;;4.90;99.90;;;;;;6213054;23;19916;-71
2021/12/08 04:11:58;;;;;;;;;;;4.90;99.90;;;;;;6212757;23;20037;-71
2021/12/08 04:14:27;;;;;;;;;;;5.00;99.90;;;;;;6212386;23;19923;-71
2021/12/08 04:16:58;;;;;;;;;;;5.00;99.90;;;;;;6187463;23;19916;-70
2021/12/08 04:19:24;;;;;;;;;;;5.10;99.90;;;;;;6212988;23;19920;-70
2021/12/08 04:21:51;;;;;;;;;;;5.10;99.90;;;;;;6211670;23;19920;-69
2021/12/08 04:24:16;;;;;;;;;;;5.10;99.90;;;;;;6212651;23;19990;-70
2021/12/08 04:26:49;;;;;;;;;;;5.10;99.90;;;;;;6187395;23;19958;-69
2021/12/08 04:29:15;;;;;;;;;;;5.10;99.90;;;;;;6187134;23;19916;-69
2021/12/08 04:31:41;;;;;;;;;;;5.10;99.90;;;;;;6212523;23;20345;-69
2021/12/08 04:34:12;;;;;;;;;;;5.20;99.90;;;;;;6187959;23;19916;-69
2021/12/08 04:36:43;;;;;;;;;;;5.20;99.90;;;;;;6214107;23;19990;-71
2021/12/08 04:39:15;;;;;;;;;;;5.20;99.90;;;;;;6188171;23;19916;-70
2021/12/08 04:41:47;;;;;;;;;;;5.20;99.90;;;;;;6212948;23;20325;-71
2021/12/08 05:00:44;;;;;;;;;;;5.00;99.90;;;;;;6211527;23;19920;-71
2021/12/08 05:08:42;;;;;;;;;;;4.90;99.90;;;;;;6108498;23;19992;-72
2021/12/08 05:11:09;;;;;;;;;;;4.90;99.90;;;;;;6186755;23;19970;-72
2021/12/08 05:13:35;;;;;;;;;;;4.80;99.90;;;;;;6212341;23;19920;-72
2021/12/08 05:16:00;;;;;;;;;;;4.70;99.90;;;;;;6212196;23;19920;-72
2021/12/08 05:18:32;;;;;;;;;;;4.70;99.90;;;;;;6211424;23;19947;-72
2021/12/08 05:21:01;;;;;;;;;;;4.70;99.90;;;;;;6186711;23;19955;-72
2021/12/08 05:23:30;;;;;;;;;;;4.70;99.90;;;;;;6187166;23;19951;-71
2021/12/08 05:25:58;;;;;;;;;;;4.60;99.90;;;;;;6211190;23;19999;-72
2021/12/08 05:28:25;;;;;;;;;;;4.60;99.90;;;;;;6186767;23;19916;-71
2021/12/08 05:30:52;;;;;;;;;;;4.60;99.90;;;;;;6185855;23;19923;-71
2021/12/08 05:33:18;;;;;;;;;;;4.60;99.90;;;;;;6212243;23;19923;-71
2021/12/08 05:35:44;;;;;;;;;;;4.60;99.90;;;;;;6212048;23;19916;-70
2021/12/08 05:38:10;;;;;;;;;;;4.60;99.90;;;;;;6211159;23;19919;-71
2021/12/08 05:40:39;;;;;;;;;;;4.50;99.90;;;;;;6212097;23;20244;-71
2021/12/08 05:43:05;;;;;;;;;;;4.50;99.90;;;;;;6212198;23;19986;-71
2021/12/08 05:45:31;;;;;;;;;;;4.50;99.90;;;;;;6211194;23;19916;-71
2021/12/08 05:47:56;;;;;;;;;;;4.50;99.90;;;;;;6211803;23;20339;-71
2021/12/08 05:50:26;;;;;;;;;;;4.50;99.90;;;;;;6211797;23;19944;-71
2021/12/08 05:52:53;;;;;;;;;;;4.40;99.90;;;;;;6210883;23;19967;-71
2021/12/08 05:55:19;;;;;;;;;;;4.40;99.90;;;;;;6186844;23;19916;-71
2021/12/08 05:57:45;;;;;;;;;;;4.40;99.90;;;;;;6211742;23;20335;-71
2021/12/08 06:00:18;;;;;;;;;;;4.40;99.90;;;;;;6211336;23;19926;-70
2021/12/08 06:02:45;;;;;;;;;;;4.30;99.90;;;;;;6212251;23;20352;-70
2021/12/08 06:05:11;;;;;;;;;;;4.30;99.90;;;;;;6211623;23;19923;-71
2021/12/08 06:07:37;;;;;;;;;;;4.40;99.90;;;;;;6211500;23;19951;-70
2021/12/08 06:10:07;;;;;;;;;;;4.30;99.90;;;;;;6211365;23;19927;-70
2021/12/08 06:12:33;;;;;;;;;;;4.30;99.90;;;;;;6211984;23;19916;-70
2021/12/08 06:14:58;;;;;;;;;;;4.30;99.90;;;;;;6210986;23;19920;-70
2021/12/08 06:17:26;;;;;;;;;;;4.20;99.90;;;;;;6187310;23;19928;-71
2021/12/08 06:19:52;;;;;;;;;;;4.20;99.90;;;;;;6212971;23;20006;-71
2021/12/08 06:22:18;;;;;;;;;;;4.20;99.90;;;;;;6188498;23;19922;-72
2021/12/08 06:24:44;;;;;;;;;;;4.20;99.90;;;;;;6188943;23;19923;-70
2021/12/08 06:27:10;;;;;;;;;;;4.20;99.90;;;;;;6212925;23;19911;-72
2021/12/08 06:29:35;;;;;;;;;;;4.20;99.90;;;;;;6214142;23;19983;-71
2021/12/08 06:32:02;;;;;;;;;;;4.20;99.90;;;;;;6215729;23;20323;-70
2021/12/08 06:34:28;;;;;;;;;;;4.20;99.90;;;;;;6212707;23;20325;-69
2021/12/08 06:37:02;;;;;;;;;;;4.20;99.90;;;;;;6213582;23;19923;-70
2021/12/08 06:39:30;;;;;;;;;;;4.20;99.90;;;;;;6213112;23;20360;-70
2021/12/08 06:41:58;;;;;;;;;;;4.20;99.90;;;;;;6212705;23;19970;-71
2021/12/08 06:44:26;;;;;;;;;;;4.20;99.90;;;;;;6188776;23;19922;-71
2021/12/08 06:46:52;;;;;;;;;;;4.30;99.90;;;;;;6213190;23;20351;-69
2021/12/08 06:49:19;;;;;;;;;;;4.20;99.90;;;;;;6212964;23;19923;-69
2021/12/08 06:51:46;;;;;;;;;;;4.20;99.90;;;;;;6214984;23;20244;-70
2021/12/08 06:54:15;;;;;;;;;;;4.20;99.90;;;;;;6188657;23;19991;-70
2021/12/08 06:56:45;;;;;;;;;;;4.20;99.90;;;;;;6212082;23;20402;-70
2021/12/08 06:59:12;;;;;;;;;;;4.20;99.90;;;;;;6213507;23;19920;-70
2021/12/08 07:01:58;;;;;;;;;;;4.20;99.90;;;;;;6213224;23;19947;-70
2021/12/08 07:04:31;;;;;;;;;;;4.20;99.90;;;;;;6187766;23;19916;-70
2021/12/08 07:07:11;;;;;;;;;;;4.20;99.90;;;;;;6188245;23;19915;-70
2021/12/08 07:09:42;;;;;;;;;;;4.30;99.90;;;;;;6213247;23;19916;-68
2021/12/08 07:12:20;;;;;;;;;;;4.20;99.90;;;;;;6213379;23;19983;-69
2021/12/08 07:14:48;;;;;;;;;;;4.30;99.90;;;;;;6212484;23;19919;-69
2021/12/08 07:17:18;;;;;;;;;;;4.30;99.90;;;;;;6211875;23;20321;-69
2021/12/08 07:19:51;;;;;;;;;;;4.30;99.90;;;;;;6213433;23;19916;-69
2021/12/08 07:22:20;;;;;;;;;;;4.30;99.90;;;;;;6213733;23;19973;-69
2021/12/08 07:24:48;;;;;;;;;;;4.30;99.90;;;;;;6187445;23;19916;-69
2021/12/08 07:27:18;;;;;;;;;;;4.30;99.90;;;;;;6187069;23;20226;-68
2021/12/08 07:29:44;;;;;;;;;;;4.30;99.90;;;;;;6212820;23;19916;-69
2021/12/08 07:32:13;;;;;;;;;;;4.40;99.90;;;;;;6212290;23;20015;-69
2021/12/08 07:34:40;;;;;;;;;;;4.30;99.90;;;;;;6214903;23;19920;-69
2021/12/08 07:37:15;;;;;;;;;;;4.30;99.90;;;;;;6212484;23;19966;-68
2021/12/08 07:39:44;;;;;;;;;;;4.30;99.90;;;;;;6213158;23;20221;-69
2021/12/08 07:42:16;;;;;;;;;;;4.30;99.90;;;;;;6212503;23;19955;-69
2021/12/08 07:44:42;;;;;;;;;;;4.30;99.90;;;;;;6212463;23;19916;-69
2021/12/08 07:47:09;;;;;;;;;;;4.30;99.90;;;;;;6212770;23;20378;-69
2021/12/08 07:49:38;;;;;;;;;;;4.30;99.90;;;;;;6188447;23;20007;-71
2021/12/08 07:52:12;;;;;;;;;;;4.30;99.90;;;;;;6211410;23;20306;-70
2021/12/08 07:54:41;;;;;;;;;;;4.20;99.90;;;;;;6187600;23;19947;-70
2021/12/08 07:57:08;;;;;;;;;;;4.30;99.90;;;;;;6188449;23;19915;-70
2021/12/08 07:59:35;;;;;;;;;;;4.30;99.90;;;;;;6210356;23;19916;-70
2021/12/08 08:02:06;;;;;;;;;;;4.30;99.90;;;;;;6212802;23;19920;-70
2021/12/08 08:04:33;;;;;;;;;;;4.20;99.90;;;;;;6212241;23;19916;-70
2021/12/08 08:06:59;;;;;;;;;;;4.30;99.90;;;;;;6207718;23;19948;-70
2021/12/08 08:09:29;;;;;;;;;;;4.30;99.90;;;;;;6206166;23;19919;-70
2021/12/08 08:11:57;;;;;;;;;;;4.30;99.90;;;;;;6208206;23;20245;-70
2021/12/08 08:14:38;;;;;;;;;;;4.40;99.90;;;;;;6209756;23;19916;-70
2021/12/08 08:17:04;;;;;;;;;;;4.40;99.90;;;;;;6186468;23;19912;-70
2021/12/08 08:19:31;;;;;;;;;;;4.40;99.90;;;;;;6187093;23;19977;-70
2021/12/08 08:22:07;;;;;;;;;;;4.50;99.90;;;;;;6211212;23;20218;-70
2021/12/08 08:24:32;;;;;;;;;;;4.50;99.90;;;;;;6187939;23;19916;-70
2021/12/08 08:27:00;;;;;;;;;;;4.50;99.90;;;;;;6185719;23;19916;-71
2021/12/08 08:29:26;;;;;;;;;;;4.50;99.90;;;;;;6187043;23;19919;-70
2021/12/08 08:31:59;;;;;;;;;;;4.60;99.90;;;;;;6212102;23;19916;-70
2021/12/08 08:34:26;;;;;;;;;;;4.60;99.90;;;;;;6186232;23;19911;-70
2021/12/08 08:36:52;;;;;;;;;;;4.60;99.90;;;;;;6211038;23;19916;-70
2021/12/08 08:39:25;;;;;;;;;;;4.70;99.90;;;;;;6187841;23;19919;-71
2021/12/08 08:41:53;;;;;;;;;;;4.80;99.90;;;;;;6210634;23;19927;-71
2021/12/08 08:44:21;;;;;;;;;;;4.90;99.90;;;;;;6212457;23;19916;-70
2021/12/08 08:46:48;;;;;;;;;;;4.90;99.90;;;;;;6185985;23;19991;-73
2021/12/08 08:49:17;;;;;;;;;;;4.90;99.90;;;;;;6211929;23;19991;-73
2021/12/08 08:51:46;;;;;;;;;;;5.00;99.90;;;;;;6212086;23;19920;-72
2021/12/08 08:54:20;;;;;;;;;;;4.90;99.90;;;;;;6212788;23;20244;-73
2021/12/08 08:56:49;;;;;;;;;;;4.90;99.90;;;;;;6211238;23;19920;-72
2021/12/08 08:59:18;;;;;;;;;;;4.90;99.90;;;;;;6211466;23;19916;-72
2021/12/08 09:01:45;;;;;;;;;;;4.80;99.90;;;;;;6211549;23;19943;-69
2021/12/08 09:04:14;;;;;;;;;;;4.80;99.90;;;;;;6211339;23;20309;-68
2021/12/08 09:06:43;;;;;;;;;;;4.80;99.90;;;;;;6211837;23;19912;-68
2021/12/08 09:09:11;;;;;;;;;;;4.80;99.90;;;;;;6211955;23;19916;-68
2021/12/08 09:11:40;;;;;;;;;;;4.80;99.90;;;;;;6212466;23;20348;-68
2021/12/08 09:14:10;;;;;;;;;;;4.80;99.90;;;;;;6187813;23;19916;-68
2021/12/08 09:16:39;;;;;;;;;;;4.90;99.90;;;;;;6211699;23;19920;-68
2021/12/08 09:19:21;;;;;;;;;;;4.90;99.90;;;;;;6212008;23;19958;-68
2021/12/08 09:21:59;;;;;;;;;;;5.00;99.90;;;;;;6187030;23;19990;-68
2021/12/08 09:24:37;;;;;;;;;;;5.00;99.90;;;;;;6211328;23;19915;-68
2021/12/08 09:27:04;;;;;;;;;;;5.00;99.90;;;;;;6212235;23;20359;-68
2021/12/08 09:29:41;;;;;;;;;;;5.00;99.90;;;;;;6212187;23;19990;-68
2021/12/08 09:32:11;;;;;;;;;;;5.00;99.90;;;;;;6186234;23;19916;-68
2021/12/08 09:34:43;;;;;;;;;;;5.10;99.90;;;;;;6186830;23;20375;-68
2021/12/08 09:37:12;;;;;;;;;;;5.10;99.90;;;;;;6186516;23;19923;-69
2021/12/08 09:39:40;;;;;;;;;;;5.20;99.90;;;;;;6187596;23;19923;-68
2021/12/08 09:42:09;;;;;;;;;;;5.30;99.90;;;;;;6212126;23;19927;-70
2021/12/08 09:44:40;;;;;;;;;;;5.40;99.90;;;;;;6211765;23;19924;-69
2021/12/08 09:47:06;;;;;;;;;;;5.50;99.90;;;;;;6212324;23;19927;-69
2021/12/08 09:49:32;;;;;;;;;;;5.50;99.90;;;;;;6211914;23;19916;-69
2021/12/08 09:51:59;;;;;;;;;;;5.50;99.90;;;;;;6210430;23;19916;-70
2021/12/08 09:54:25;;;;;;;;;;;5.60;99.90;;;;;;6210969;23;19920;-69
2021/12/08 09:56:52;;;;;;;;;;;5.60;99.90;;;;;;6210753;23;20007;-69
2021/12/08 09:59:19;;;;;;;;;;;5.60;99.90;;;;;;6210986;23;19927;-70
2021/12/08 10:01:49;;;;;;;;;;;5.60;99.90;;;;;;6211865;23;20091;-70
2021/12/08 10:04:15;;;;;;;;;;;5.60;99.90;;;;;;6212175;23;19923;-70
2021/12/08 10:06:42;;;;;;;;;;;5.70;99.90;;;;;;6211308;23;20558;-71
2021/12/08 10:09:08;;;;;;;;;;;5.70;99.90;;;;;;6212395;23;19922;-70
2021/12/08 10:11:34;;;;;;;;;;;5.80;99.90;;;;;;6212120;23;19943;-70
2021/12/08 10:14:00;;;;;;;;;;;5.80;99.50;;;;;;6186223;23;19938;-70
2021/12/08 10:16:26;;;;;;;;;;;5.90;99.50;;;;;;6212270;23;20329;-70
2021/12/08 10:18:55;;;;;;;;;;;5.90;99.40;;;;;;6183728;23;20016;-69
2021/12/08 10:21:20;;;;;;;;;;;5.80;98.90;;;;;;6211647;23;20428;-70
2021/12/08 10:23:47;;;;;;;;;;;5.90;99.40;;;;;;6211890;23;20360;-70
2021/12/08 10:26:14;;;;;;;;;;;5.90;99.40;;;;;;6210280;23;19939;-69
2021/12/08 10:28:41;;;;;;;;;;;5.90;99.40;;;;;;6186721;23;20269;-68
2021/12/08 10:31:09;;;;;;;;;;;6.00;99.20;;;;;;6212257;23;19912;-69
2021/12/08 10:39:30;;;;;;;;;;;6.10;98.70;;;;;;6185548;23;19915;-69
2021/12/08 10:42:01;;;;;;;;;;;6.10;98.80;;;;;;6211795;23;19923;-70
2021/12/08 10:44:51;;;;;;;;;;;6.20;97.60;;;;;;6211606;23;19920;-70
2021/12/08 10:47:22;;;;;;;;;;;6.20;98.10;;;;;;6211254;23;19987;-70
2021/12/08 10:55:05;;;;;;;;;;;6.40;98.30;;;;;;6211764;23;19916;-70
2021/12/08 10:57:35;;;;;;;;;;;6.50;97.60;;;;;;6211552;23;19920;-69
2021/12/08 11:00:05;;;;;;;;;;;6.60;97.80;;;;;;6185519;23;19920;-69
2021/12/08 11:02:37;;;;;;;;;;;6.60;97.80;;;;;;6211087;23;20329;-70
2021/12/08 11:05:04;;;;;;;;;;;6.60;97.40;;;;;;6187648;23;19939;-70
2021/12/08 11:07:29;;;;;;;;;;;6.60;97.20;;;;;;6212754;23;20388;-69
2021/12/08 11:09:55;;;;;;;;;;;6.60;97.20;;;;;;6188435;23;19915;-69
2021/12/08 11:12:21;;;;;;;;;;;6.60;97.40;;;;;;6188008;23;19919;-69
2021/12/08 11:14:48;;;;;;;;;;;6.60;96.60;;;;;;6212857;23;19923;-70
2021/12/08 11:17:28;;;;;;;;;;;6.60;96.90;;;;;;6213243;23;20329;-70
2021/12/08 11:20:12;;;;;;;;;;;6.70;96.70;;;;;;6212986;23;19927;-70
2021/12/08 11:22:37;;;;;;;;;;;6.70;97.10;;;;;;6212365;23;19955;-70
2021/12/08 11:25:04;;;;;;;;;;;6.70;96.90;;;;;;6213930;23;19915;-70
2021/12/08 11:27:33;;;;;;;;;;;6.60;96.50;;;;;;6212501;23;19924;-70
2021/12/08 11:30:10;;;;;;;;;;;6.60;96.80;;;;;;6213360;23;20436;-70
2021/12/08 11:32:36;;;;;;;;;;;6.60;97.00;;;;;;6188843;23;19924;-70
2021/12/08 11:35:02;;;;;;;;;;;6.60;97.10;;;;;;6212515;23;20027;-69
2021/12/08 11:37:32;;;;;;;;;;;6.50;97.20;;;;;;6187887;23;19994;-70
2021/12/08 11:40:01;;;;;;;;;;;6.60;97.50;;;;;;6213367;23;19922;-69
2021/12/08 11:42:32;;;;;;;;;;;6.50;97.50;;;;;;6212314;23;19974;-70
2021/12/08 11:44:59;;;;;;;;;;;6.50;97.20;;;;;;6213251;23;20315;-70
2021/12/08 11:47:32;;;;;;;;;;;6.50;97.20;;;;;;6213174;23;19935;-70
2021/12/08 11:49:59;;;;;;;;;;;6.60;97.30;;;;;;6212665;23;19915;-69
2021/12/08 11:52:32;;;;;;;;;;;6.50;97.10;;;;;;6213825;23;19942;-70
2021/12/08 11:55:00;;;;;;;;;;;6.50;96.90;;;;;;6213059;23;19923;-69
2021/12/08 11:57:40;;;;;;;;;;;6.50;97.00;;;;;;6210671;23;19962;-69
2021/12/08 12:00:10;;;;;;;;;;;6.50;97.20;;;;;;6187526;23;19926;-70
2021/12/08 12:02:37;;;;;;;;;;;6.50;97.10;;;;;;6213222;23;20003;-70
2021/12/08 12:05:08;;;;;;;;;;;6.50;96.80;;;;;;6187464;23;19915;-70
2021/12/08 12:07:34;;;;;;;;;;;6.50;97.20;;;;;;6212440;23;19915;-70
2021/12/08 12:10:00;;;;;;;;;;;6.50;96.90;;;;;;6212015;23;20054;-70
2021/12/08 12:12:25;;;;;;;;;;;6.40;97.20;;;;;;6187210;23;19926;-70
2021/12/08 12:14:51;;;;;;;;;;;6.50;97.10;;;;;;6187738;23;20333;-69
2021/12/08 12:17:17;;;;;;;;;;;6.50;97.40;;;;;;6211794;23;19922;-70
2021/12/08 12:19:46;;;;;;;;;;;6.50;97.30;;;;;;6212378;23;19920;-69
2021/12/08 12:22:30;;;;;;;;;;;6.40;97.00;;;;;;6212679;23;19955;-70
2021/12/08 12:25:14;;;;;;;;;;;6.40;97.10;;;;;;6211941;23;20251;-70
2021/12/08 12:27:43;;;;;;;;;;;6.40;97.20;;;;;;6212621;23;20292;-70
2021/12/08 12:30:16;;;;;;;;;;;6.50;97.10;;;;;;6213042;23;19912;-70
2021/12/08 12:32:52;;;;;;;;;;;6.50;97.30;;;;;;6212358;23;19951;-70
2021/12/08 12:35:18;;;;;;;;;;;6.50;97.00;;;;;;6187677;23;19912;-69
2021/12/08 12:37:44;;;;;;;;;;;6.50;96.60;;;;;;6212322;23;19938;-69
2021/12/08 12:40:12;;;;;;;;;;;6.50;96.80;;;;;;6186584;23;19934;-70
2021/12/08 12:42:44;;;;;;;;;;;6.50;97.10;;;;;;6212698;23;20006;-70
2021/12/08 12:45:12;;;;;;;;;;;6.50;96.90;;;;;;6212114;23;19920;-70
2021/12/08 12:47:39;;;;;;;;;;;6.50;97.20;;;;;;6187452;23;20285;-70
2021/12/08 12:50:04;;;;;;;;;;;6.50;97.10;;;;;;6212609;23;20340;-70
2021/12/08 12:52:36;;;;;;;;;;;6.50;97.20;;;;;;6211780;23;19920;-70
2021/12/08 12:55:10;;;;;;;;;;;6.50;97.20;;;;;;6212649;23;19916;-70
2021/12/08 12:57:54;;;;;;;;;;;6.40;97.10;;;;;;6187576;23;19916;-69
2021/12/08 13:00:27;;;;;;;;;;;6.40;96.90;;;;;;6211728;23;19998;-69
2021/12/08 13:02:53;;;;;;;;;;;6.40;97.00;;;;;;6187229;23;19916;-70
2021/12/08 13:05:18;;;;;;;;;;;6.40;97.10;;;;;;6212514;23;19916;-70
2021/12/08 13:07:59;;;;;;;;;;;6.40;97.00;;;;;;6186445;23;20309;-70
2021/12/08 13:10:37;;;;;;;;;;;6.40;96.80;;;;;;6212475;23;19998;-70
2021/12/08 13:13:13;;;;;;;;;;;6.40;96.60;;;;;;6211782;23;20054;-70
2021/12/08 13:15:44;;;;;;;;;;;6.40;96.90;;;;;;6212832;23;19920;-70
2021/12/08 13:18:14;;;;;;;;;;;6.40;96.80;;;;;;6212103;23;20002;-70
2021/12/08 13:20:43;;;;;;;;;;;6.50;96.90;;;;;;6211477;23;19920;-69
2021/12/08 13:23:10;;;;;;;;;;;6.50;96.80;;;;;;6212537;23;19923;-70
2021/12/08 13:28:22;;;;;;;;;;;6.80;96.50;;;;;;6211230;23;19920;-70
2021/12/08 13:30:53;;;;;;;;;;;6.90;96.00;;;;;;6212421;23;19978;-70
2021/12/08 13:33:34;;;;;;;;;;;7.00;95.60;;;;;;6212337;23;19916;-70
2021/12/08 13:36:01;;;;;;;;;;;7.10;95.20;;;;;;6211305;23;19965;-70
2021/12/08 13:38:27;;;;;;;;;;;7.10;95.20;;;;;;6212112;23;20343;-70
2021/12/08 13:40:55;;;;;;;;;;;7.10;95.50;;;;;;6212136;23;20210;-70
2021/12/08 13:43:40;;;;;;;;;;;7.10;95.30;;;;;;6186267;23;20392;-69
2021/12/08 13:46:07;;;;;;;;;;;7.10;95.10;;;;;;6187583;23;19920;-70
2021/12/08 13:48:34;;;;;;;;;;;7.10;95.50;;;;;;6186198;23;20394;-69
2021/12/08 13:51:20;;;;;;;;;;;7.10;95.10;;;;;;6187118;23;19974;-70
2021/12/08 13:54:05;;;;;;;;;;;7.00;94.80;;;;;;6212130;23;19939;-70
2021/12/08 13:56:41;;;;;;;;;;;7.00;95.20;;;;;;6211211;23;19920;-71
2021/12/08 13:59:06;;;;;;;;;;;6.80;95.00;;;;;;6212491;23;19919;-69
2021/12/08 14:01:36;;;;;;;;;;;6.70;95.40;;;;;;6186778;23;20003;-70
2021/12/08 14:04:14;;;;;;;;;;;6.70;95.60;;;;;;6211196;23;19947;-70
2021/12/08 14:06:40;;;;;;;;;;;6.60;95.90;;;;;;6211949;23;20456;-69
2021/12/08 14:09:12;;;;;;;;;;;6.60;96.20;;;;;;6212034;23;19923;-70
2021/12/08 14:11:41;;;;;;;;;;;6.60;96.00;;;;;;6213924;23;20002;-70
2021/12/08 14:14:08;;;;;;;;;;;6.50;96.10;;;;;;6212093;23;20287;-70
2021/12/08 14:16:33;;;;;;;;;;;6.50;96.30;;;;;;6211431;23;20244;-71
2021/12/08 14:18:59;;;;;;;;;;;6.50;96.30;;;;;;6211689;23;19924;-70
2021/12/08 14:21:31;;;;;;;;;;;6.50;96.20;;;;;;6211542;23;19916;-70
2021/12/08 14:23:56;;;;;;;;;;;6.50;96.10;;;;;;6210726;23;19927;-70
2021/12/08 14:26:23;;;;;;;;;;;6.50;95.80;;;;;;6211973;23;19915;-69
2021/12/08 14:28:51;;;;;;;;;;;6.40;95.70;;;;;;6211609;23;19923;-69
2021/12/08 14:31:25;;;;;;;;;;;6.40;95.90;;;;;;6210816;23;19990;-71
2021/12/08 14:33:53;;;;;;;;;;;6.40;95.90;;;;;;6186006;23;19916;-71
2021/12/08 14:36:25;;;;;;;;;;;6.40;95.90;;;;;;6211245;23;19916;-70
2021/12/08 14:38:52;;;;;;;;;;;6.40;96.10;;;;;;6212057;23;19958;-70
2021/12/08 14:41:23;;;;;;;;;;;6.40;95.60;;;;;;6213102;23;19994;-70
2021/12/08 14:43:52;;;;;;;;;;;6.30;95.30;;;;;;6213478;23;19916;-70
2021/12/08 14:46:20;;;;;;;;;;;6.20;95.30;;;;;;6212610;23;19911;-70
2021/12/08 14:49:06;;;;;;;;;;;6.10;95.50;;;;;;6213067;23;19998;-69
2021/12/08 14:51:33;;;;;;;;;;;6.00;95.80;;;;;;6212737;23;20321;-71
2021/12/08 14:54:08;;;;;;;;;;;5.90;95.90;;;;;;6213370;23;20614;-70
2021/12/08 14:56:37;;;;;;;;;;;5.80;96.20;;;;;;6215796;23;19911;-70
2021/12/08 14:59:04;;;;;;;;;;;5.80;96.40;;;;;;6211568;23;19916;-70
2021/12/08 15:01:29;;;;;;;;;;;5.70;96.60;;;;;;6213168;23;20438;-70
2021/12/08 15:03:55;;;;;;;;;;;5.60;96.70;;;;;;6188240;23;19915;-70
2021/12/08 15:06:21;;;;;;;;;;;5.60;97.00;;;;;;6212868;23;19919;-70
2021/12/08 15:08:47;;;;;;;;;;;5.50;97.00;;;;;;6213077;23;20322;-70
2021/12/08 15:11:18;;;;;;;;;;;5.50;97.00;;;;;;6213161;23;19919;-70
2021/12/08 15:13:43;;;;;;;;;;;5.40;97.10;;;;;;6211840;23;20028;-70
2021/12/08 15:16:13;;;;;;;;;;;5.30;97.40;;;;;;6213476;23;19965;-70
2021/12/08 15:18:38;;;;;;;;;;;5.30;97.40;;;;;;6213313;23;20337;-70
2021/12/08 15:21:10;;;;;;;;;;;5.20;97.30;;;;;;6212458;23;19916;-70
2021/12/08 15:23:43;;;;;;;;;;;5.20;97.50;;;;;;6213435;23;20325;-70
2021/12/08 15:26:11;;;;;;;;;;;5.20;97.80;;;;;;6213697;23;19962;-70
2021/12/08 15:28:38;;;;;;;;;;;5.10;98.00;;;;;;6212358;23;19962;-70
2021/12/08 15:31:04;;;;;;;;;;;5.10;98.10;;;;;;6188550;23;19966;-70
2021/12/08 15:33:31;;;;;;;;;;;5.10;98.40;;;;;;6187921;23;20325;-70
2021/12/08 15:36:11;;;;;;;;;;;5.10;98.00;;;;;;6187440;23;19916;-71
2021/12/08 15:38:38;;;;;;;;;;;5.00;97.90;;;;;;6213282;23;20002;-71